METAR Data
IDs: Format: Raw Decoded Include TAF

Data at: 0927 UTC 07 Dec 2021

KCEW 070924Z AUTO 00000KT 2 1/2SM BR BKN004 OVC008 17/16 A3007 RMK AO2 T01670161
KCEW 070853Z AUTO 00000KT 4SM BR OVC006 17/16 A3006 RMK AO2 RAB02E12 CIG 002V008 SLP178 P0000 60000 T01670161 50004
KCEW 070846Z AUTO 03003KT 4SM BR OVC004 17/16 A3006 RMK AO2 RAB02E12 CIG 002V006 P0000 T01670161
KCEW 070835Z AUTO 01003KT 2 1/2SM BR OVC004 17/16 A3006 RMK AO2 RAB02E12 CIG 002V007 P0000 T01720161
KCEW 070753Z AUTO 03003KT 4SM BR OVC003 17/17 A3007 RMK AO2 RAB26E52 CIG 002V006 SLP179 P0000 T01720167
KCEW 070732Z AUTO 00000KT 2 1/2SM -RA BR BKN004 OVC007 17/17 A3006 RMK AO2 VIS 2V3 RAB26 CIG 003V007 P0000 T01720172
KCEW 070702Z AUTO 00000KT 7SM OVC005 18/17 A3006 RMK AO2 CIG 002V009 T01780167
KCEW 070653Z AUTO 00000KT 7SM OVC003 18/17 A3005 RMK AO2 CIG 001V007 SLP173 T01780167
KCEW 070632Z AUTO 00000KT 3SM BR OVC002 17/17 A3005 RMK AO2 T01720172
KCEW 070625Z AUTO 00000KT 1 3/4SM BR OVC002 17/17 A3005 RMK AO2 T01720172
KCEW 070614Z AUTO 12003KT 2SM BR OVC002 17/17 A3004 RMK AO2 T01720172
KCEW 070605Z AUTO 00000KT 1 3/4SM BR OVC002 17/17 A3005 RMK AO2 T01720172
KCEW 070553Z AUTO 00000KT 2 1/2SM BR OVC002 17/17 A3005 RMK AO2 SLP173 60001 T01720167 10189 20172 402560139 58001
KCEW 070500Z AUTO 34007KT 10SM BKN004 OVC110 17/17 A3007 RMK AO2 T01720167
KCEW 070453Z AUTO 33007KT 10SM SCT003 OVC110 17/17 A3007 RMK AO2 SLP179 T01720167 TSNO
KCEW 070449Z AUTO 33005KT 10SM SCT003 OVC110 17/16 A3006 RMK AO2 TSNO
KCEW 070353Z AUTO 12005KT 10SM SCT070 BKN120 17/17 A3006 RMK AO2 PRESFR SLP175 T01720167
KCEW 070316Z AUTO 00000KT 10SM FEW005 OVC055 18/17 A3010 RMK AO2 T01780167
KCEW 070253Z AUTO 00000KT 10SM OVC050 17/17 A3009 RMK AO2 SLP188 60001 T01720167 50003
KCEW 070220Z AUTO 00000KT 10SM FEW005 OVC060 18/17 A3009 RMK AO2 T01780167
KCEW 070153Z AUTO 01003KT 10SM OVC060 18/17 A3010 RMK AO2 RAE27 SLP190 P0001 T01780167
KCEW 070053Z AUTO 32004KT 10SM -RA SCT075 OVC095 18/17 A3009 RMK AO2 RAB27 SLP188 P0000 T01830167
KCEW 062353Z AUTO 28005KT 10SM OVC080 19/17 A3008 RMK AO2 RAE00 SLP186 P0000 60009 T01890172 10256 20189 53024
KCEW 062253Z AUTO 30006KT 6SM -RA BR SCT013 BKN075 OVC110 19/18 A3007 RMK AO2 PK WND 25031/2236 RAB35 SLP179 P0009 T01940178
KCEW 062227Z AUTO 23009KT 10SM VCTS FEW020 BKN075 OVC095 23/19 A3003 RMK AO2 LTG DSNT N AND NW T02280194
KCEW 062217Z AUTO 23009KT 10SM FEW021 BKN075 OVC085 23/19 A3002 RMK AO2 LTG DSNT N AND NW T02280194
KCEW 062153Z AUTO 22007KT 10SM SCT018 BKN024 OVC080 23/19 A3003 RMK AO2 LTG DSNT NW-NE SLP165 T02330194
KCEW 062053Z AUTO 22006KT 10SM SCT018 BKN026 OVC033 24/19 A3001 RMK AO2 SLP160 T02390194 56009
KCEW 062023Z AUTO 23007KT 10SM SCT026 BKN095 24/19 A3002 RMK AO2 T02440194
KCEW 062016Z AUTO 23010KT 10SM FEW022 BKN029 BKN095 24/19 A3002 RMK AO2 T02440194
KCEW 062009Z AUTO 23009KT 10SM SCT024 BKN031 BKN095 24/19 A3002 RMK AO2 T02440194
KCEW 061953Z AUTO 23009KT 10SM BKN028 OVC036 24/19 A3002 RMK AO2 SLP163 T02440189
KCEW 061941Z AUTO 22008KT 10SM BKN027 BKN036 24/19 A3002 RMK AO2 T02440189
KCEW 061853Z AUTO 21010KT 10SM FEW030 25/18 A3002 RMK AO2 SLP164 T02500183
KCEW 061811Z AUTO 23009KT 10SM SCT028 BKN037 25/18 A3003 RMK AO2 T02500183
KCEW 061753Z AUTO 23008KT 10SM BKN026 25/18 A3004 RMK AO2 SLP170 T02500183 10256 20139 58020
KCEW 061738Z AUTO 22007G20KT 10SM BKN026 26/18 A3004 RMK AO2 T02560183
KCEW 061653Z AUTO 22006KT 10SM FEW027 24/18 A3007 RMK AO2 SLP179 T02440183
KCEW 061637Z AUTO 22007KT 10SM SCT027 24/18 A3008 RMK AO2 T02440183
KCEW 061630Z AUTO 23011G17KT 10SM BKN028 24/18 A3008 RMK AO2 T02440183
KCEW 061553Z AUTO 21007KT 10SM FEW055 24/19 A3009 RMK AO2 SLP188 T02390189
KCEW 061453Z AUTO 22007KT 10SM CLR 22/19 A3010 RMK AO2 SLP190 T02220189 53007
KCEW 061353Z AUTO 20006KT 10SM FEW016 18/18 A3007 RMK AO2 SLP181 T01830178
KCEW 061343Z AUTO VRB04KT 8SM FEW016 18/17 A3006 RMK AO2 T01780172
KCEW 061334Z AUTO 00000KT 3SM BR BKN010 17/16 A3007 RMK AO2 T01670161
KCEW 061321Z AUTO 00000KT 2SM BR BKN008 16/15 A3008 RMK AO2 T01560150
KCEW 061319Z AUTO 00000KT 1/2SM FG VV007 16/15 A3008 RMK AO2 T01560150
KCEW 061305Z AUTO 00000KT 1/4SM FG VV004 14/14 A3008 RMK AO2 T01440144
KCEW 061253Z AUTO 00000KT 1/2SM FG VV003 14/13 A3009 RMK AO2 SLP187 T01390133
KCEW 061153Z AUTO 21003KT 1/4SM FG VV003 15/14 A3008 RMK AO2 SLP184 60000 T01500144 10183 20144 55001
KCEW 061131Z AUTO 19003KT 1/4SM FG VV004 15/14 A3008 RMK AO2 T01500144
KCEW 061124Z AUTO 00000KT 1/2SM FG VV005 15/15 A3008 RMK AO2 T01500150
KCEW 061053Z AUTO 00000KT 1/4SM FG BKN004 OVC030 15/15 A3008 RMK AO2 SLP183 T01500150
KCEW 061030Z AUTO 00000KT 1/4SM FG VV003 15/15 A3008 RMK AO2 T01500150
KCEW 061012Z AUTO 00000KT 1/2SM FG BKN004 BKN029 16/16 A3008 RMK AO2 T01610156
KCEW 061002Z AUTO 00000KT 1/4SM FG SCT005 BKN022 BKN030 17/16 A3008 RMK AO2 T01670161
KCEW 060953Z AUTO 00000KT 1/2SM FG FEW005 BKN022 OVC032 17/17 A3008 RMK AO2 SLP184 T01720167
KCEW 060948Z AUTO 00000KT 1SM BR BKN022 OVC031 17/17 A3008 RMK AO2
KCEW 060941Z AUTO 00000KT 3/4SM BR BKN022 BKN030 17/17 A3008 RMK AO2 T01720167
KCEW 060928Z AUTO 00000KT 1/2SM FG FEW023 SCT033 17/17 A3008 RMK AO2 T01720167
KCEW 060920Z AUTO 00000KT 1 1/2SM BR FEW023 18/17 A3008 RMK AO2 VIS 1/2V4 T01780172
KCEW 060853Z AUTO 17003KT 4SM BR CLR 18/17 A3008 RMK AO2 RAE12 SLP182 P0000 60000 T01780172 56008
KCEW 060832Z AUTO 00000KT 4SM BR FEW002 18/17 A3008 RMK AO2 RAE12 P0000 T01780172
KCEW 060817Z AUTO 00000KT 4SM BR BKN002 BKN024 18/17 A3008 RMK AO2 RAE12 P0000 T01780172
KCEW 060753Z AUTO 00000KT 4SM -RA BR OVC001 18/18 A3008 RMK AO2 RAB0658 SLP183 P0000 T01830178
KCEW 060740Z AUTO 17004KT 3SM -RA BR OVC001 18/18 A3009 RMK AO2 RAB0658 P0000 T01830178
KCEW 060716Z AUTO 17003KT 2 1/2SM -RA BR OVC001 18/18 A3009 RMK AO2 RAB0658 P0000 T01780178
KCEW 060703Z AUTO VRB03KT 2SM -RA BR OVC002 18/17 A3009 RMK AO2 VIS 1 1/2V2 1/2 RAB0658 P0000 T01780172
KCEW 060653Z AUTO 15003KT 1 1/2SM BR OVC002 17/17 A3009 RMK AO2 SLP186 T01720167
KCEW 060619Z AUTO 00000KT 1 1/4SM BR OVC002 15/14 A3010 RMK AO2 T01500144
KCEW 060609Z AUTO 00000KT 1 3/4SM BR OVC001 15/14 A3009 RMK AO2 T01500139
KCEW 060553Z AUTO 00000KT 8SM OVC001 14/13 A3010 RMK AO2 SLP190 T01440133 10161 20128 402560106 58010
KCEW 060502Z AUTO 33003KT 7SM BKN004 13/12 A3011 RMK AO2 T01330122
KCEW 060453Z AUTO 00000KT 7SM SCT004 13/12 A3011 RMK AO2 SLP194 T01330122
KCEW 060353Z AUTO 00000KT 9SM CLR 14/13 A3012 RMK AO2 SLP198 T01390128
KCEW 060253Z AUTO 00000KT 10SM CLR 14/13 A3013 RMK AO2 SLP200 T01390128 53004
KCEW 060153Z AUTO 00000KT 9SM FEW039 14/13 A3012 RMK AO2 SLP199 T01390128
KCEW 060053Z AUTO 00000KT 10SM SCT028 15/13 A3012 RMK AO2 SLP198 T01500128
KCEW 052353Z AUTO 00000KT 10SM SCT022 16/13 A3012 RMK AO2 SLP197 T01610133 10256 20161 53010
KCEW 052253Z AUTO 19004KT 10SM CLR 20/14 A3010 RMK AO2 SLP190 T02000144
KCEW 052153Z AUTO 20008KT 10SM FEW024 SCT041 22/16 A3009 RMK AO2 SLP186 T02170161